Godman Army Air Field
KFTK : rendu visible

Aérodrome :











RETROUVEZ-NOUS SUR...

 
LOGIN :

S'inscrire | Disclaimer

   EN    FR    IT 

 









Légende :    VFR   VFR Marginal   IFR   IFR Intensif   IFR Très Intensif
Visi : 
Plafond : 
>= 8 km
>= 3000ft
5 à 8 km
1000 à 3000 ft
1500m à 5 km
500 à 1000 ft
800 à 1500m
200 à 500 ft
< 800m
< 200 ft
Symboles :   Orages  Brouillard  Fortes neiges  Fortes précipitations  Vent > 20 kt






- Altitude de l'aérodrome : 756 ft


KFTK - Godman Army Air Field

DERNIER METAR :
  • 311926Z AUTO 03008KT 10SM CLR 22/08 A3025 RMK AO2 SLP244

METARs EXPIRÉS :
  • 311856Z AUTO 03005KT 10SM CLR 22/08 A3027 RMK AO2 SLP251 T02230084
  • 311828Z AUTO 02009KT 10SM CLR 22/08 A3027 RMK AO2 SLP250
  • 311756Z AUTO 01010G14KT 10SM CLR 22/08 A3029 RMK AO2 SLP257 T02170075 10218 20150 58002
  • 311711Z AUTO 01011KT 10SM CLR 22/08 A3029 RMK AO2 WSHFT 08 SLP257
  • 311656Z AUTO 36006KT 10SM CLR 21/07 A3029 RMK AO2 SLP257 T02120074

TAF TAF KFTK
Valide du 31 à 17h jusqu'au 01 à 23h UTC


311700Z 3117/0123 VRB06KT 9999 SKC QNH3017INS
TEMPO 3117/3119 02010G15KT TX23/3120Z TN13/0111Z
FIR KZID / Amérique du Nord



MET'MAP, la Météo Aéronautique d'un coup d'oeil ! - Copyright ORBIFLY Décembre 2007 - Disclaimer

ORBIFLY MET'MAP TEAM :

Programmation & Développement : Alexandra Zaïnal
Sur une idée originale de : Baudouin d'Aumeries
Assistance à la programmation : Marc-Olivier Méhu
Soutien technique & logistique : Manuel Goepfert

Contact : metmap@orbifly.com




SOURCES & CREDITS :

   NOAA       Earth
Advisory